Latest Weather Observations for Lombadina

IDW60801

Issued at 11:35 pm WST Thursday 30 October 2014 (issued every 30 minutes, with the page automatically refreshed every 10 minutes)

About weather observations | Map of weather stations | Latest weather observations for WA | Other Formats
Station Details ID: 503016 Name: LOMBADINA AIRSTRIP Lat: -16.52 Lon: 122.92 Height: 42.0 m
Data from the previous 72 hours. | See also: Recent months for locations in Western Australia
Date/Time
WST
Temp
°C
App
Temp
°C
Dew
Point
Rel
Hum
%
Delta-T
°C
Wind Press
QNH
hPa
Press
MSL
hPa
Rain
since 9 am
mm
Dir
 
Spd
km/h
Gust
km/h
Spd
kts
Gust
kts
30/11:30pm 27.3 31.4 25.2 88 1.5 W 13 24 7 13 1007.9 1007.6 0.0
30/11:00pm 27.4 31.4 25.0 87 1.7 W 13 22 7 12 1008.2 1007.9 0.0
30/10:30pm 27.5 31.4 24.8 85 1.9 W 13 22 7 12 1008.4 1008.1 0.0
30/10:00pm 27.5 31.4 24.8 85 1.9 W 13 24 7 13 1008.5 1008.2 0.0
30/09:30pm 27.6 31.3 24.6 84 2.1 W 13 22 7 12 1008.7 1008.4 0.0
30/09:00pm 27.7 31.6 24.8 84 2.0 W 13 20 7 11 1008.6 1008.3 0.0
30/08:30pm 27.8 31.7 24.8 84 2.1 W 13 24 7 13 1008.5 1008.2 0.0
30/08:00pm 27.9 31.5 24.4 81 2.4 W 13 20 7 11 1008.4 1008.1 0.0
30/07:30pm 27.9 31.5 24.4 81 2.4 W 13 22 7 12 1008.2 1007.9 0.0
30/07:00pm 28.0 31.1 24.1 79 2.7 W 15 22 8 12 1008.0 1007.7 0.0
30/06:30pm 28.2 31.4 23.7 76 3.1 W 13 26 7 14 1007.6 1007.3 0.0
30/06:00pm 28.4 31.1 23.5 75 3.4 W 15 28 8 15 1007.4 1007.1 0.0
30/05:30pm 28.8 31.4 23.3 72 3.8 W 15 28 8 15 1007.3 1007.0 0.0
30/05:00pm 29.3 31.6 22.7 67 4.5 W 15 28 8 15 1007.1 1006.8 0.0
30/04:30pm 29.8 31.6 22.5 65 5.0 WNW 17 28 9 15 1007.0 1006.7 0.0
30/04:00pm 30.4 32.3 22.8 64 5.2 W 17 32 9 17 1006.9 1006.6 0.0
30/03:30pm 31.0 32.6 22.2 59 6.0 WNW 17 28 9 15 1006.9 1006.6 0.0
30/03:00pm 31.4 32.4 21.1 54 6.9 W 17 26 9 14 1006.9 1006.6 0.0
30/02:30pm 32.2 33.4 21.5 53 7.2 W 17 28 9 15 1007.2 1006.9 0.0
30/02:00pm 32.2 33.5 21.6 53 7.2 WNW 17 28 9 15 1007.5 1007.2 0.0
30/01:30pm 31.9 33.3 21.9 55 6.8 WNW 17 28 9 15 1007.7 1007.4 0.0
30/01:00pm 32.7 34.0 21.6 52 7.5 WNW 17 28 9 15 1008.1 1007.8 0.0
30/12:30pm 32.5 33.7 21.5 52 7.4 WNW 17 26 9 14 1008.5 1008.2 0.0
30/12:00pm 32.1 34.1 22.2 56 6.8 WNW 15 24 8 13 1008.9 1008.6 0.0
30/11:30am 32.2 34.7 23.2 59 6.2 NW 15 26 8 14 1009.2 1008.9 0.0
30/11:00am 32.4 34.7 22.7 56 6.7 NW 15 22 8 12 1009.5 1009.2 0.0
30/10:30am 32.6 34.9 22.7 56 6.8 NW 15 24 8 13 1009.8 1009.5 0.0
30/10:00am 34.0 36.0 20.8 46 8.9 NW 11 19 6 10 1010.1 1009.8 0.0
30/09:30am 34.9 35.1 14.7 29 12.5 SW 7 17 4 9 1010.5 1010.2 0.0
30/09:00am 33.8 34.1 15.9 34 11.3 WSW 9 19 5 10 1010.6 1010.3 0.0
30/08:30am 32.5 34.5 18.7 44 9.0 SW 6 13 3 7 1010.9 1010.6 0.0
30/08:00am 30.6 33.9 21.4 58 6.2 SW 6 11 3 6 1010.9 1010.6 0.0
30/07:30am 28.9 32.6 23.2 71 3.9 SSW 9 15 5 8 1010.8 1010.5 0.0
30/07:00am 27.7 32.6 25.2 86 1.8 SSW 9 17 5 9 1010.5 1010.2 0.0
30/06:30am 26.2 32.1 25.4 95 0.6 SSW 4 7 2 4 1010.3 1010.0 0.0
30/06:00am 25.1 30.7 24.3 95 0.6 S 2 6 1 3 1010.0 1009.7 0.0
30/05:39am 24.4 29.2 23.5 95 0.6 SE 4 6 2 3 1009.9 1009.6 0.0
30/05:30am 24.4 29.6 23.6 95 0.5 SE 2 6 1 3 1009.9 1009.6 0.0
30/05:25am 24.0 29.0 23.2 95 0.5 SSE 2 4 1 2 1009.8 1009.5 0.0
30/05:00am 24.3 29.7 23.3 94 0.7 CALM 0 0 0 0 1009.7 1009.4 0.0
30/04:30am 24.3 29.1 23.5 95 0.5 SSW 4 6 2 3 1009.5 1009.2 0.0
30/04:00am 25.3 30.9 24.2 94 0.8 W 2 4 1 2 1009.3 1009.0 0.0
30/03:30am 25.7 31.4 24.4 92 0.9 W 2 6 1 3 1009.1 1008.8 0.0
30/03:00am 26.2 31.7 24.6 91 1.1 W 4 7 2 4 1009.0 1008.7 0.0
30/02:30am 26.4 31.5 24.6 90 1.2 W 6 9 3 5 1008.8 1008.5 0.0
30/02:00am 26.5 31.3 24.5 89 1.4 W 7 17 4 9 1008.7 1008.4 0.0
30/01:30am 26.4 30.7 24.2 88 1.5 W 9 13 5 7 1009.0 1008.7 0.0
30/01:00am 26.2 31.1 24.4 90 1.2 W 6 11 3 6 1009.2 1008.9 0.0
30/12:30am 26.2 31.3 24.0 88 1.5 WSW 4 6 2 3 1009.8 1009.5 0.0
30/12:00am 27.2 32.0 24.2 84 2.1 SW 6 11 3 6 1010.1 1009.8 0.0
 
Date/Time
WST
Temp
°C
App
Temp
°C
Dew
Point
Rel
Hum
%
Delta-T
°C
Wind Press
QNH
hPa
Press
MSL
hPa
Rain
since 9 am
mm
Dir
 
Spd
km/h
Gust
km/h
Spd
kts
Gust
kts
29/11:30pm 27.5 31.8 24.3 83 2.2 W 9 19 5 10 1009.9 1009.6 0.0
29/11:00pm 27.8 31.8 24.4 82 2.4 W 11 17 6 9 1010.2 1009.9 0.0
29/10:30pm 27.7 32.0 24.2 81 2.4 W 9 19 5 10 1010.3 1010.0 0.0
29/10:00pm 27.0 31.8 24.5 86 1.7 W 7 15 4 8 1010.7 1010.4 0.0
29/09:30pm 27.0 31.7 24.3 85 1.9 WNW 7 11 4 6 1010.7 1010.4 0.0
29/09:00pm 27.3 32.6 24.4 84 2.0 W 4 7 2 4 1011.5 1011.2 0.0
29/08:30pm 27.3 32.2 24.6 85 1.9 W 7 13 4 7 1011.1 1010.8 0.0
29/08:00pm 27.4 31.8 24.4 84 2.1 W 9 19 5 10 1010.9 1010.6 0.0
29/07:30pm 27.5 31.7 24.7 85 2.0 W 11 20 6 11 1010.9 1010.6 0.0
29/07:00pm 27.6 31.6 25.1 86 1.8 WNW 13 19 7 10 1010.8 1010.5 0.0
29/06:30pm 27.8 31.5 24.6 83 2.2 WNW 13 22 7 12 1010.5 1010.2 0.0
29/06:00pm 27.9 32.1 24.7 83 2.2 WNW 11 19 6 10 1010.3 1010.0 0.0
29/05:30pm 28.3 31.9 24.4 79 2.7 W 13 26 7 14 1010.2 1009.9 0.0
29/05:00pm 28.6 31.8 24.9 80 2.6 WNW 17 26 9 14 1009.9 1009.6 0.0
29/04:30pm 29.1 32.5 24.6 76 3.1 W 15 28 8 15 1009.8 1009.5 0.0
29/04:00pm 29.8 32.7 24.5 73 3.7 W 17 32 9 17 1009.8 1009.5 0.0
29/03:30pm 30.1 33.1 25.2 75 3.5 W 19 33 10 18 1009.9 1009.6 0.0
29/03:00pm 30.8 33.9 25.4 73 3.8 WNW 19 30 10 16 1010.2 1009.9 0.0
29/02:30pm 30.6 33.1 24.5 70 4.3 WNW 19 32 10 17 1010.3 1010.0 0.0
29/02:00pm 30.2 32.2 24.5 71 4.0 WNW 22 32 12 17 1010.3 1010.0 0.0
29/01:30pm 31.0 33.5 24.5 68 4.6 WNW 19 33 10 18 1010.5 1010.2 0.0
29/01:00pm 30.5 33.3 25.2 73 3.7 NW 20 30 11 16 1010.7 1010.4 0.0
29/12:30pm 31.4 34.0 24.6 67 4.8 NW 19 28 10 15 1011.0 1010.7 0.0
29/12:00pm 31.5 34.8 24.5 66 4.9 NW 15 26 8 14 1011.4 1011.1 0.0
29/11:30am 31.7 34.3 24.0 63 5.4 NW 17 26 9 14 1011.8 1011.5 0.0
29/11:00am 32.7 35.8 23.5 58 6.4 NW 13 22 7 12 1011.9 1011.6 0.0
29/10:30am 33.0 36.8 23.5 57 6.6 W 9 17 5 9 1012.1 1011.8 0.0
29/10:00am 33.2 37.1 22.5 53 7.3 W 6 17 3 9 1012.4 1012.1 0.0
29/09:30am 31.6 35.1 21.8 56 6.6 WSW 6 11 3 6 1012.7 1012.4 0.0
29/09:00am 30.8 34.4 22.3 60 5.8 SSW 7 15 4 8 1013.0 1012.7 0.0
29/08:30am 30.0 33.8 22.4 63 5.2 SW 6 13 3 7 1013.0 1012.7 0.0
29/08:00am 28.9 33.5 23.8 74 3.5 SW 6 11 3 6 1013.1 1012.8 0.0
29/07:41am 28.2 32.8 24.2 79 2.8 S 7 11 4 6 1013.0 1012.7 0.0
29/07:30am 27.9 32.7 24.4 81 2.4 S 7 11 4 6 1013.0 1012.7 0.0
29/07:03am 27.0 31.9 24.7 87 1.6 SSE 7 13 4 7 1012.9 1012.6 0.0
29/07:00am 26.8 32.0 24.8 89 1.4 SSE 6 13 3 7 1012.8 1012.5 0.0
29/06:30am 25.8 31.9 25.0 95 0.6 SSE 2 6 1 3 1012.3 1012.0 0.0
29/06:00am 24.6 30.0 23.9 96 0.5 SSE 2 4 1 2 1012.0 1011.7 0.0
29/05:53am 24.5 30.3 23.9 96 0.4 CALM 0 2 0 1 1012.0 1011.7 0.0
29/05:30am 24.1 29.5 23.2 95 0.6 CALM 0 2 0 1 1011.8 1011.5 0.0
29/05:27am 24.3 29.9 23.6 96 0.5 CALM 0 2 0 1 1011.8 1011.5 0.0
29/05:20am 24.5 30.2 23.8 96 0.5 CALM 0 2 0 1 1011.7 1011.4 0.0
29/05:00am 24.7 29.7 23.9 95 0.5 S 4 7 2 4 1011.5 1011.2 0.0
29/04:42am 24.4 29.0 23.8 96 0.4 S 6 9 3 5 1011.3 1011.0 0.0
29/04:30am 24.0 28.6 23.1 95 0.6 S 4 7 2 4 1011.1 1010.8 0.0
29/04:23am 24.1 28.7 23.1 94 0.7 S 4 6 2 3 1011.1 1010.8 0.0
29/04:00am 24.7 30.1 23.8 95 0.6 WSW 2 4 1 2 1010.8 1010.5 0.0
29/03:30am 24.6 29.2 23.8 95 0.5 SW 6 7 3 4 1010.4 1010.1 0.0
29/03:00am 24.7 29.3 23.8 95 0.6 SW 6 7 3 4 1010.3 1010.0 0.0
29/02:30am 24.8 29.8 23.8 94 0.7 WSW 4 6 2 3 1010.2 1009.9 0.0
29/02:00am 25.2 30.3 24.1 94 0.8 WSW 4 7 2 4 1010.1 1009.8 0.0
29/01:30am 24.9 29.8 23.7 93 0.8 WSW 4 6 2 3 1010.2 1009.9 0.0
29/01:00am 25.1 29.6 23.6 91 1.0 WSW 6 9 3 5 1010.2 1009.9 0.0
29/12:30am 25.1 29.6 23.7 92 1.0 W 6 7 3 4 1010.2 1009.9 0.0
29/12:00am 25.4 29.8 23.8 91 1.1 SW 7 11 4 6 1010.5 1010.2 0.0
 
Date/Time
WST
Temp
°C
App
Temp
°C
Dew
Point
Rel
Hum
%
Delta-T
°C
Wind Press
QNH
hPa
Press
MSL
hPa
Rain
since 9 am
mm
Dir
 
Spd
km/h
Gust
km/h
Spd
kts
Gust
kts
28/11:30pm 26.0 30.7 24.0 89 1.4 WSW 6 9 3 5 1010.8 1010.5 0.0
28/11:00pm 26.1 30.6 23.9 88 1.5 W 7 13 4 7 1010.8 1010.5 0.0
28/10:30pm 25.6 30.0 23.5 88 1.4 W 6 9 3 5 1010.8 1010.5 0.0
28/10:00pm 25.8 30.6 23.5 87 1.6 W 4 7 2 4 1011.0 1010.7 0.0
28/09:30pm 26.4 30.8 23.5 84 2.0 S 6 15 3 8 1011.5 1011.2 0.0
28/09:00pm 27.1 31.4 23.3 80 2.6 W 6 11 3 6 1010.9 1010.6 0.0
28/08:30pm 27.2 31.0 23.4 80 2.6 W 9 15 5 8 1010.7 1010.4 0.0
28/08:00pm 27.3 31.3 23.7 81 2.5 W 9 17 5 9 1010.6 1010.3 0.0
28/07:30pm 27.4 31.1 23.9 81 2.4 W 11 22 6 12 1010.5 1010.2 0.0
28/07:00pm 27.4 31.3 24.3 83 2.2 WNW 11 19 6 10 1010.6 1010.3 0.0
28/06:30pm 27.5 31.6 24.6 84 2.0 WNW 11 22 6 12 1010.2 1009.9 0.0
28/06:00pm 27.7 31.8 24.6 83 2.2 WNW 11 22 6 12 1010.2 1009.9 0.0
28/05:43pm 28.0 32.0 24.4 81 2.5 WNW 11 26 6 14 1010.0 1009.7 0.0
28/05:30pm 28.1 32.1 24.4 80 2.6 WNW 11 22 6 12 1010.1 1009.8 0.0
28/05:14pm 28.4 32.1 24.6 80 2.7 NW 13 24 7 13 1009.9 1009.6 0.0
28/05:00pm 28.7 32.5 24.7 79 2.8 WNW 13 22 7 12 1009.8 1009.5 0.0
28/04:30pm 29.4 32.6 24.3 74 3.6 NW 15 26 8 14 1009.8 1009.5 0.0
28/04:00pm 29.5 32.4 24.4 74 3.6 NW 17 30 9 16 1009.6 1009.3 0.0
28/03:30pm 29.8 32.3 23.8 70 4.2 WNW 17 26 9 14 1009.6 1009.3 0.0
28/03:00pm 30.0 32.9 23.8 69 4.3 WNW 15 26 8 14 1009.4 1009.1 0.0
28/02:30pm 30.6 32.9 23.4 65 5.0 WNW 17 26 9 14 1009.3 1009.0 0.0
28/02:00pm 30.1 33.0 24.4 71 4.0 WNW 17 30 9 16 1009.6 1009.3 0.0
28/01:30pm 30.5 32.6 23.7 67 4.7 WNW 19 28 10 15 1010.1 1009.8 0.0
28/01:00pm 31.4 34.1 24.1 65 5.1 NW 17 28 9 15 1010.9 1010.6 0.0
28/12:30pm 31.3 33.0 22.4 59 6.1 NNW 17 26 9 14 1011.2 1010.9 0.0
28/12:00pm 31.3 33.0 23.1 61 5.7 NNW 19 28 10 15 1011.6 1011.3 0.0
28/11:30am 32.2 34.0 21.9 54 7.0 NW 15 20 8 11 1011.7 1011.4 0.0
28/11:00am 31.7 33.7 22.2 57 6.5 NNW 15 24 8 13 1012.0 1011.7 0.0
28/10:30am 32.3 35.6 22.5 56 6.7 WNW 9 19 5 10 1012.1 1011.8 0.0
28/10:00am 31.7 35.7 23.8 63 5.5 W 9 19 5 10 1012.3 1012.0 0.0
28/09:30am 31.0 34.7 23.3 63 5.3 W 9 19 5 10 1012.7 1012.4 0.0
28/09:00am 31.0 35.0 23.7 65 5.1 W 9 15 5 8 1013.0 1012.7 0.0
28/08:30am 30.2 34.1 23.0 65 4.9 W 7 13 4 7 1012.9 1012.6 0.0
28/08:00am 29.6 33.5 23.0 67 4.5 NW 7 13 4 7 1013.0 1012.7 0.0
28/07:30am 28.5 33.0 23.0 72 3.8 N 4 15 2 8 1013.0 1012.7 0.0
28/07:00am 28.1 31.9 23.5 76 3.2 NNW 9 13 5 7 1012.8 1012.5 0.0
28/06:30am 27.6 32.3 24.0 81 2.5 N 6 7 3 4 1012.3 1012.0 0.0
28/06:00am 26.5 31.6 24.0 86 1.7 ENE 4 7 2 4 1012.0 1011.7 0.0
28/05:30am 26.7 32.0 23.7 83 2.1 W 2 7 1 4 1011.7 1011.4 0.0
28/05:00am 26.7 31.0 23.7 83 2.1 NW 7 19 4 10 1011.0 1010.7 0.0
28/04:30am 26.7 31.1 23.8 84 2.0 NW 7 11 4 6 1010.8 1010.5 0.0
28/04:00am 26.7 31.1 23.8 84 2.0 NNW 7 11 4 6 1010.7 1010.4 0.0
28/03:30am 26.8 31.5 24.0 84 1.9 NW 6 11 3 6 1010.5 1010.2 0.0
28/03:00am 26.4 31.1 23.9 86 1.7 WNW 6 7 3 4 1010.3 1010.0 0.0
28/02:30am 26.7 32.1 23.9 84 1.9 WNW 2 9 1 5 1010.1 1009.8 0.0
28/02:00am 26.8 31.4 24.1 85 1.9 WNW 7 11 4 6 1009.8 1009.5 0.0
28/01:30am 27.0 31.1 24.0 83 2.1 W 9 17 5 9 1010.2 1009.9 0.0
28/01:00am 27.0 31.2 24.1 84 2.0 NW 9 19 5 10 1009.8 1009.5 0.0
28/12:30am 27.1 30.0 24.4 85 1.9 NW 17 26 9 14 1010.0 1009.7 0.0
28/12:00am 27.1 30.7 24.3 85 1.9 NW 13 22 7 12 1010.1 1009.8 0.0

Other Formats:

Comma delimited format used in spreadsheet applications
http://www.bom.gov.au/fwo/IDW60801/IDW60801.99206.axf

JavaScript Object Notation format (JSON) in row-major order
http://www.bom.gov.au/fwo/IDW60801/IDW60801.99206.json